ADDS METAR Data INFO
IDs: Format: Raw Decoded Include TAF

Data at: 0335 UTC 19 Feb 2018

KGWR 190315Z AUTO 01019G25KT 6SM BR M12/M14 A2994 RMK A01
KGWR 190255Z AUTO 01019KT 6SM BR M12/M14 A2993 RMK A01
KGWR 190235Z AUTO 01018G26KT 4SM BR M12/M14 A2991 RMK A01
KGWR 190215Z AUTO 36019G24KT 4SM BR M12/M14 A2989 RMK A01
KGWR 190155Z AUTO 01020G26KT 4SM BR M12/M14 A2990 RMK A01
KGWR 190135Z AUTO 36021KT 3SM BR M12/M14 A2990 RMK A01
KGWR 190115Z AUTO 01019KT 2 1/2SM BR M12/M14 A2990 RMK A01
KGWR 190055Z AUTO 36018G26KT 2 1/2SM BR M12/M13 A2990 RMK A01
KGWR 190035Z AUTO 01023KT 6SM BR M11/M13 A2986 RMK A01
KGWR 190015Z AUTO 36019G25KT 1 1/4SM BR M11/M13 A2986 RMK A01
KGWR 182355Z AUTO 36023G29KT 1 3/4SM BR M11/M12 A2985 RMK A01
KGWR 182335Z AUTO 01022G29KT 5SM BR M10/M12 A2982 RMK A01
KGWR 182315Z AUTO 01024KT 2SM BR M10/M12 A2981 RMK A01
KGWR 182255Z AUTO 36023KT 1 1/2SM BR M09/M11 A2980 RMK A01
KGWR 182235Z AUTO 01018KT 2 1/2SM BR M08/M10 A2978 RMK A01 VIS 1 3/4V5
KGWR 182215Z AUTO 02021G28KT 7SM M08/M11 A2975 RMK A01
KGWR 182155Z AUTO 02019G25KT 5SM HZ M08/M10 A2975 RMK A01
KGWR 182135Z AUTO 01022KT 3SM BR M08/M10 A2974 RMK A01
KGWR 182115Z AUTO 02019G26KT 5SM HZ M08/M10 A2972 RMK A01
KGWR 182055Z AUTO 02020G28KT 2 1/2SM BR M08/M10 A2971 RMK A01
KGWR 182035Z AUTO 01022G29KT 3SM BR M08/M10 A2969 RMK A01
KGWR 182015Z AUTO 01022G28KT 5SM BR M08/M09 A2967 RMK A01
KGWR 181955Z AUTO 02021KT 8SM M07/M09 A2966 RMK A01
KGWR 181935Z AUTO 03020G25KT 9SM M07/M09 A2966 RMK A01
KGWR 181915Z AUTO 02024KT 8SM M07/M09 A2967 RMK A01
KGWR 181855Z AUTO 02019G25KT 8SM M06/M08 A2965 RMK A01
KGWR 181835Z AUTO 02020KT 9SM M06/M08 A2964 RMK A01
KGWR 181815Z AUTO 03020KT 9SM M06/M08 A2962 RMK A01
KGWR 181755Z AUTO 03019KT 7SM M06/M08 A2962 RMK A01
KGWR 181735Z AUTO 02015KT 7SM M06/M08 A2962 RMK A01
KGWR 181715Z AUTO 03019KT 10SM M06/M08 A2960 RMK A01
KGWR 181655Z AUTO 03018KT 10SM M06/M08 A2961 RMK A01
KGWR 181635Z AUTO 04015KT 10SM M06/M08 A2962 RMK A01
KGWR 181615Z AUTO 05015KT 10SM M06/M08 A2961 RMK A01
KGWR 181555Z AUTO 05014KT 10SM M06/M08 A2961 RMK A01
KGWR 181535Z AUTO 06013G19KT 10SM M06/M09 A2961 RMK A01
KGWR 181515Z AUTO 06015KT 10SM M07/M09 A2961 RMK A01
KGWR 181455Z AUTO 06014KT 10SM M07/M09 A2962 RMK A01
KGWR 181435Z AUTO 08015KT 10SM M07/M09 A2962 RMK A01
KGWR 181415Z AUTO 07017KT 10SM M07/M09 A2963 RMK A01
KGWR 181355Z AUTO 08016G24KT 10SM M07/M09 A2963 RMK A01
KGWR 181335Z AUTO 08017KT 10SM M07/M09 A2964 RMK A01
KGWR 181315Z AUTO 07017KT 10SM M07/M10 A2964 RMK A01
KGWR 181255Z AUTO 07015G21KT 10SM M07/M09 A2966 RMK A01
KGWR 181235Z AUTO 07017KT 10SM M07/M09 A2968 RMK A01
KGWR 181215Z AUTO 06014KT 10SM M08/M09 A2969 RMK A01
KGWR 181155Z AUTO 07012KT 10SM M08/M08 A2971 RMK A01
KGWR 181135Z AUTO 09011KT 10SM M07/M08 A2973 RMK A01
KGWR 181115Z AUTO 09013KT 10SM M08/M08 A2973 RMK A01
KGWR 181055Z AUTO 09011KT 10SM M08/M08 A2975 RMK A01
KGWR 181035Z AUTO 09009KT 10SM M08/M09 A2976 RMK A01
KGWR 181015Z AUTO 08009KT 10SM M08/M09 A2978 RMK A01
KGWR 180955Z AUTO 08010KT 2 1/2SM BR M08/M09 A2979 RMK A01
KGWR 180935Z AUTO 08009KT 1 1/2SM BR M08/M09 A2981 RMK A01
KGWR 180915Z AUTO 09010KT 1 1/4SM BR M08/M09 A2982 RMK A01
KGWR 180855Z AUTO 09009KT 1 3/4SM BR M08/M10 A2984 RMK A01
KGWR 180835Z AUTO 09008KT 2 1/2SM HZ M08/M11 A2986 RMK A01
KGWR 180815Z AUTO 12006KT 10SM M07/M12 A2990 RMK A01
KGWR 180755Z AUTO 00000KT 10SM M08/M12 A2991 RMK A01
KGWR 180735Z AUTO 00000KT 10SM M08/M12 A2992 RMK A01
KGWR 180715Z AUTO 00000KT 10SM M08/M12 A2995 RMK A01
KGWR 180655Z AUTO 00000KT 10SM M09/M13 A2995 RMK A01
KGWR 180635Z AUTO 00000KT 10SM M09/M13 A2995 RMK A01
KGWR 180615Z AUTO 21006KT 10SM M10/M13 A2997 RMK A01
KGWR 180555Z AUTO 00000KT 10SM M10/M14 A2995 RMK A01
KGWR 180535Z AUTO 00000KT 10SM M10/M14 A2995 RMK A01
KGWR 180515Z AUTO 00000KT 10SM M10/M14 A2995 RMK A01
KGWR 180455Z AUTO 00000KT 10SM M11/M14 A2996 RMK A01
KGWR 180435Z AUTO 22004KT 10SM M11/M15 A2996 RMK A01
KGWR 180415Z AUTO 22005KT 10SM M12/M15 A2996 RMK A01
KGWR 180355Z AUTO 00000KT 10SM M14/M16 A2997 RMK A01
KGWR 180335Z AUTO 00000KT 10SM M13/M16 A2998 RMK A01
KGWR 180315Z AUTO 00000KT 10SM M13/M17 A2998 RMK A01
KGWR 180255Z AUTO 00000KT 10SM M11/M14 A2998 RMK A01
KGWR 180235Z AUTO 25004KT 10SM M12/M15 A2998 RMK A01
KGWR 180215Z AUTO 4.41666704KT 10SM M12/M16 A2999 RMK A01
KGWR 180155Z AUTO 24004KT 10SM M10/M15 A3000 RMK A01
KGWR 180135Z AUTO 30004KT 10SM M08/M14 A2999 RMK A01
KGWR 180115Z AUTO 28005KT 10SM M09/M15 A2999 RMK A01
KGWR 180055Z AUTO 27004KT 10SM M08/M14 A2999 RMK A01
KGWR 180035Z AUTO 28005KT 10SM M07/M14 A2999 RMK A01
KGWR 180015Z AUTO 28007KT 10SM M07/M14 A2999 RMK A01
KGWR 172355Z AUTO 29006KT 10SM M05/M13 A2999 RMK A01
KGWR 172335Z AUTO 28009KT 10SM M04/M13 A2999 RMK A01
KGWR 172315Z AUTO 28009G14KT 10SM M04/M14 A2999 RMK A01
KGWR 172255Z AUTO 30011KT 10SM M03/M14 A2998 RMK A01
KGWR 172235Z AUTO 31011KT 10SM M03/M14 A2999 RMK A01
KGWR 172215Z AUTO 31010G18KT 10SM M03/M14 A2999 RMK A01
KGWR 172155Z AUTO 29015KT 10SM M03/M14 A2999 RMK A01
KGWR 172135Z AUTO 30014KT 10SM M02/M14 A2999 RMK A01
KGWR 172115Z AUTO 32014KT 10SM M02/M14 A2998 RMK A01
KGWR 172055Z AUTO 31014KT 10SM M02/M14 A2997 RMK A01
KGWR 172035Z AUTO 31016G22KT 10SM M02/M15 A2997 RMK A01
KGWR 172015Z AUTO 31014G21KT 10SM M02/M14 A2997 RMK A01
KGWR 171955Z AUTO 32016KT 10SM M02/M14 A2997 RMK A01
KGWR 171935Z AUTO 30016KT 10SM M02/M14 A2997 RMK A01
KGWR 171915Z AUTO 31015G20KT 10SM M02/M13 A2997 RMK A01
KGWR 171855Z AUTO 31014G20KT 10SM M02/M13 A2997 RMK A01
KGWR 171835Z AUTO 31015G22KT 10SM M02/M14 A2996 RMK A01
KGWR 171815Z AUTO 29016KT 10SM M03/M13 A2997 RMK A01
KGWR 171755Z AUTO 31014KT 10SM M03/M12 A2996 RMK A01
KGWR 171735Z AUTO 30014G20KT 10SM M03/M11 A2996 RMK A01
KGWR 171715Z AUTO 31014G19KT 10SM M03/M11 A2996 RMK A01
KGWR 171655Z AUTO 31014KT 10SM M04/M11 A2995 RMK A01
KGWR 171635Z AUTO 31016KT 10SM M04/M10 A2994 RMK A01
KGWR 171615Z AUTO 30013KT 10SM M05/M10 A2993 RMK A01
KGWR 171555Z AUTO 28008KT 10SM M06/M09 A2992 RMK A01